createdAt,value
2018-04-30T00:00:34.715Z,947.04
2018-04-30T00:01:34.716Z,946.98
2018-04-30T00:02:35.640Z,946.94
2018-04-30T00:03:34.726Z,946.97
2018-04-30T00:04:34.720Z,946.90
2018-04-30T00:05:34.716Z,946.78
2018-04-30T00:06:34.729Z,946.78
2018-04-30T00:07:34.718Z,946.74
2018-04-30T00:08:34.721Z,946.72
2018-04-30T00:09:34.721Z,946.78
2018-04-30T00:10:34.720Z,946.74
2018-04-30T00:11:34.723Z,946.64
2018-04-30T00:12:34.755Z,946.64
2018-04-30T00:13:34.723Z,946.61
2018-04-30T00:14:34.724Z,946.62
2018-04-30T00:15:34.725Z,946.51
2018-04-30T00:16:34.737Z,946.55
2018-04-30T00:17:34.729Z,946.52
2018-04-30T00:18:34.733Z,946.49
2018-04-30T00:19:34.728Z,946.48
2018-04-30T00:20:34.737Z,946.40
2018-04-30T00:21:34.742Z,946.33
2018-04-30T00:22:34.734Z,946.35
2018-04-30T00:23:34.742Z,946.40
2018-04-30T00:24:34.739Z,946.33
2018-04-30T00:25:34.738Z,946.32
2018-04-30T00:26:34.736Z,946.27
2018-04-30T00:27:34.737Z,946.25
2018-04-30T00:28:34.736Z,946.24
2018-04-30T00:29:34.737Z,946.15
2018-04-30T00:30:34.738Z,946.16
2018-04-30T00:31:34.739Z,946.21
2018-04-30T00:32:34.740Z,946.14
2018-04-30T00:33:34.789Z,946.10
2018-04-30T00:34:34.740Z,946.07
2018-04-30T00:35:34.743Z,946.01
2018-04-30T00:36:34.746Z,946.05
2018-04-30T00:37:34.752Z,945.98
2018-04-30T00:38:34.743Z,946.00
2018-04-30T00:39:34.745Z,945.95
2018-04-30T00:40:34.744Z,945.95
2018-04-30T00:41:34.752Z,945.92
2018-04-30T00:42:34.745Z,945.89
2018-04-30T00:43:34.751Z,945.87
2018-04-30T00:44:34.747Z,945.88
2018-04-30T00:45:34.747Z,945.84
2018-04-30T00:46:34.748Z,945.86
2018-04-30T00:47:34.773Z,945.84
2018-04-30T00:48:34.749Z,945.82
2018-04-30T00:49:34.750Z,945.80
2018-04-30T00:50:34.751Z,945.76
2018-04-30T00:51:34.752Z,945.73
2018-04-30T00:52:34.753Z,945.70
2018-04-30T00:53:34.753Z,945.68
2018-04-30T00:54:34.760Z,945.71
2018-04-30T00:55:34.760Z,945.66
2018-04-30T00:56:34.754Z,945.61
2018-04-30T00:57:34.755Z,945.63
2018-04-30T00:58:34.754Z,945.65
2018-04-30T00:59:34.756Z,945.60
2018-04-30T01:00:34.757Z,945.61
2018-04-30T01:01:34.760Z,945.61
2018-04-30T01:02:34.757Z,945.61
2018-04-30T01:03:34.829Z,945.58
2018-04-30T01:04:34.760Z,945.64
2018-04-30T01:05:34.761Z,945.64
2018-04-30T01:06:34.759Z,945.64
2018-04-30T01:07:34.762Z,945.57
2018-04-30T01:08:34.762Z,945.61
2018-04-30T01:09:34.762Z,945.57
2018-04-30T01:10:34.760Z,945.55
2018-04-30T01:11:34.767Z,945.54
2018-04-30T01:12:34.763Z,945.54
2018-04-30T01:13:34.763Z,945.49
2018-04-30T01:14:34.763Z,945.50
2018-04-30T01:15:34.766Z,945.47
2018-04-30T01:16:34.764Z,945.45
2018-04-30T01:17:34.764Z,945.47
2018-04-30T01:18:34.766Z,945.50
2018-04-30T01:19:34.766Z,945.52
2018-04-30T01:20:34.766Z,945.56
2018-04-30T01:21:34.767Z,945.48
2018-04-30T01:22:34.781Z,945.46
2018-04-30T01:23:34.779Z,945.47
2018-04-30T01:24:34.771Z,945.46
2018-04-30T01:25:34.769Z,945.43
2018-04-30T01:26:35.653Z,945.44
2018-04-30T01:27:34.774Z,945.46
2018-04-30T01:28:34.772Z,945.42
2018-04-30T01:29:34.772Z,945.41
2018-04-30T01:30:34.771Z,945.44
2018-04-30T01:31:34.783Z,945.43
2018-04-30T01:32:34.781Z,945.34
2018-04-30T01:33:34.778Z,945.37
2018-04-30T01:34:34.776Z,945.35
2018-04-30T01:35:34.771Z,945.39
2018-04-30T01:36:34.783Z,945.39
2018-04-30T01:37:34.773Z,945.38
2018-04-30T01:38:34.774Z,945.42
2018-04-30T01:39:34.773Z,945.33
2018-04-30T01:40:34.776Z,945.35
2018-04-30T01:41:34.793Z,945.37
2018-04-30T01:42:34.775Z,945.38
2018-04-30T01:43:34.774Z,945.33
2018-04-30T01:44:34.778Z,945.30
2018-04-30T01:45:34.780Z,945.27
2018-04-30T01:46:34.776Z,945.29
2018-04-30T01:47:34.776Z,945.33
2018-04-30T01:48:34.781Z,945.27
2018-04-30T01:49:34.780Z,945.25
2018-04-30T01:50:34.777Z,945.25
2018-04-30T01:51:34.779Z,945.20
2018-04-30T01:52:34.780Z,945.21
2018-04-30T01:53:34.779Z,945.09
2018-04-30T01:54:34.778Z,945.13
2018-04-30T01:55:34.779Z,945.11
2018-04-30T01:56:34.778Z,945.12
2018-04-30T01:57:34.779Z,945.09
2018-04-30T01:58:34.782Z,945.05
2018-04-30T01:59:34.792Z,945.08
2018-04-30T02:00:34.782Z,944.99
2018-04-30T02:01:34.781Z,944.97
2018-04-30T02:02:35.656Z,945.00
2018-04-30T02:03:34.780Z,944.96
2018-04-30T02:04:34.788Z,944.91
2018-04-30T02:05:34.782Z,944.91
2018-04-30T02:06:34.782Z,944.91
2018-04-30T02:07:34.781Z,944.89
2018-04-30T02:08:34.797Z,944.89
2018-04-30T02:09:34.782Z,944.88
2018-04-30T02:10:34.782Z,944.89
2018-04-30T02:11:34.784Z,944.81
2018-04-30T02:12:34.780Z,944.85
2018-04-30T02:13:34.786Z,944.87
2018-04-30T02:14:34.786Z,944.82
2018-04-30T02:15:35.671Z,944.84
2018-04-30T02:16:34.783Z,944.84
2018-04-30T02:17:34.784Z,944.88
2018-04-30T02:18:34.783Z,944.82
2018-04-30T02:19:34.783Z,944.76
2018-04-30T02:20:34.784Z,944.80
2018-04-30T02:21:35.659Z,944.79
2018-04-30T02:22:34.788Z,944.77
2018-04-30T02:23:34.783Z,944.72
2018-04-30T02:24:34.784Z,944.69
2018-04-30T02:25:34.785Z,944.74
2018-04-30T02:26:34.784Z,944.72
2018-04-30T02:27:34.784Z,944.72
2018-04-30T02:28:34.784Z,944.69
2018-04-30T02:29:34.786Z,944.70
2018-04-30T02:30:34.785Z,944.61
2018-04-30T02:31:34.785Z,944.63
2018-04-30T02:32:34.785Z,944.58
2018-04-30T02:33:34.827Z,944.65
2018-04-30T02:34:34.785Z,944.64
2018-04-30T02:35:34.787Z,944.72
2018-04-30T02:36:35.661Z,944.79
2018-04-30T02:37:35.661Z,944.76
2018-04-30T02:38:34.787Z,944.82
2018-04-30T02:39:34.788Z,944.77
2018-04-30T02:40:34.793Z,944.80
2018-04-30T02:41:34.790Z,944.79
2018-04-30T02:42:34.795Z,944.77
2018-04-30T02:43:34.793Z,944.65
2018-04-30T02:44:34.796Z,944.68
2018-04-30T02:45:34.797Z,944.78
2018-04-30T02:46:34.794Z,944.76
2018-04-30T02:47:34.796Z,944.79
2018-04-30T02:48:34.800Z,944.73
2018-04-30T02:49:34.799Z,944.72
2018-04-30T02:50:34.807Z,944.71
2018-04-30T02:51:34.802Z,944.76
2018-04-30T02:52:34.806Z,944.66
2018-04-30T02:53:34.806Z,944.71
2018-04-30T02:54:34.808Z,944.57
2018-04-30T02:55:34.808Z,944.62
2018-04-30T02:56:34.811Z,944.59
2018-04-30T02:57:34.812Z,944.61
2018-04-30T02:58:34.814Z,944.57
2018-04-30T02:59:34.817Z,944.63
2018-04-30T03:00:34.821Z,944.70
2018-04-30T03:01:34.826Z,944.63
2018-04-30T03:02:34.820Z,944.66
2018-04-30T03:03:34.824Z,944.57
2018-04-30T03:04:34.826Z,944.63
2018-04-30T03:05:34.828Z,944.64
2018-04-30T03:06:34.831Z,944.65
2018-04-30T03:07:34.832Z,944.74
2018-04-30T03:08:34.835Z,944.67
2018-04-30T03:09:34.837Z,944.69
2018-04-30T03:10:34.843Z,944.67
2018-04-30T03:11:34.840Z,944.60
2018-04-30T03:12:34.844Z,944.72
2018-04-30T03:13:34.847Z,944.71
2018-04-30T03:14:34.845Z,944.56
2018-04-30T03:15:34.852Z,944.69
2018-04-30T03:16:34.855Z,944.68
2018-04-30T03:17:34.856Z,944.59
2018-04-30T03:18:34.857Z,944.67
2018-04-30T03:19:34.859Z,944.56
2018-04-30T03:20:34.863Z,944.69
2018-04-30T03:21:34.865Z,944.67
2018-04-30T03:22:34.868Z,944.70
2018-04-30T03:23:34.869Z,944.74
2018-04-30T03:24:34.872Z,944.75
2018-04-30T03:25:34.876Z,944.74
2018-04-30T03:26:34.875Z,944.77
2018-04-30T03:27:34.879Z,944.83
2018-04-30T03:28:34.882Z,944.82
2018-04-30T03:29:34.884Z,944.84
2018-04-30T03:30:34.894Z,944.83
2018-04-30T03:31:34.888Z,944.82
2018-04-30T03:32:34.889Z,944.86
2018-04-30T03:33:35.673Z,944.84
2018-04-30T03:34:34.896Z,944.83
2018-04-30T03:35:34.898Z,944.78
2018-04-30T03:36:34.910Z,944.70
2018-04-30T03:37:34.915Z,944.79
2018-04-30T03:38:34.915Z,944.71
2018-04-30T03:39:34.913Z,944.78
2018-04-30T03:40:34.913Z,944.78
2018-04-30T03:41:34.915Z,944.79
2018-04-30T03:42:34.918Z,944.83
2018-04-30T03:43:34.919Z,944.79
2018-04-30T03:44:34.921Z,944.88
2018-04-30T03:45:34.925Z,944.86
2018-04-30T03:46:34.926Z,944.85
2018-04-30T03:47:34.929Z,944.83
2018-04-30T03:48:34.936Z,944.80
2018-04-30T03:49:34.943Z,944.78
2018-04-30T03:50:34.935Z,944.78
2018-04-30T03:51:34.941Z,944.80
2018-04-30T03:52:34.943Z,944.80
2018-04-30T03:53:34.951Z,944.81
2018-04-30T03:54:34.943Z,944.86
2018-04-30T03:55:34.945Z,944.81
2018-04-30T03:56:34.956Z,944.85
2018-04-30T03:57:34.952Z,944.80
2018-04-30T03:58:34.955Z,944.78
2018-04-30T03:59:34.966Z,944.88
2018-04-30T04:00:34.966Z,944.82
2018-04-30T04:01:34.970Z,944.84
2018-04-30T04:02:34.966Z,944.90
2018-04-30T04:03:34.970Z,944.79
2018-04-30T04:04:34.969Z,944.86
2018-04-30T04:05:35.041Z,944.82
2018-04-30T04:06:34.975Z,944.82
2018-04-30T04:07:34.978Z,944.85
2018-04-30T04:08:34.982Z,944.85
2018-04-30T04:09:34.984Z,944.92
2018-04-30T04:10:34.987Z,944.86
2018-04-30T04:11:34.985Z,944.91
2018-04-30T04:12:34.987Z,944.89
2018-04-30T04:13:34.989Z,944.88
2018-04-30T04:14:35.680Z,944.92
2018-04-30T04:15:34.995Z,944.87
2018-04-30T04:16:34.999Z,944.92
2018-04-30T04:17:34.997Z,944.90
2018-04-30T04:18:34.999Z,944.94
2018-04-30T04:19:35.004Z,945.00
2018-04-30T04:20:35.015Z,945.05
2018-04-30T04:21:35.009Z,945.15
2018-04-30T04:22:35.011Z,945.13
2018-04-30T04:23:35.011Z,945.20
2018-04-30T04:24:35.013Z,945.27
2018-04-30T04:25:35.016Z,945.32
2018-04-30T04:26:35.037Z,945.38
2018-04-30T04:27:35.018Z,945.46
2018-04-30T04:28:35.023Z,945.55
2018-04-30T04:29:35.027Z,945.63
2018-04-30T04:30:35.684Z,945.58
2018-04-30T04:31:35.028Z,945.56
2018-04-30T04:32:35.031Z,945.58
2018-04-30T04:33:35.032Z,945.61
2018-04-30T04:34:35.032Z,945.55
2018-04-30T04:35:35.036Z,945.72
2018-04-30T04:36:35.038Z,945.58
2018-04-30T04:37:35.045Z,945.63
2018-04-30T04:38:35.043Z,945.62
2018-04-30T04:39:35.043Z,945.56
2018-04-30T04:40:35.048Z,945.67
2018-04-30T04:41:35.051Z,945.58
2018-04-30T04:42:35.049Z,945.58
2018-04-30T04:43:35.682Z,945.59
2018-04-30T04:44:35.054Z,945.64
2018-04-30T04:45:35.056Z,945.63
2018-04-30T04:46:35.058Z,945.64
2018-04-30T04:47:35.186Z,945.74
2018-04-30T04:48:35.079Z,945.73
2018-04-30T04:49:35.072Z,945.73
2018-04-30T04:50:35.067Z,945.66
2018-04-30T04:51:35.070Z,945.68
2018-04-30T04:52:35.072Z,945.79
2018-04-30T04:53:35.074Z,945.77
2018-04-30T04:54:35.685Z,945.80
2018-04-30T04:55:35.079Z,945.90
2018-04-30T04:56:35.081Z,945.88
2018-04-30T04:57:35.086Z,945.94
2018-04-30T04:58:35.085Z,945.91
2018-04-30T04:59:35.086Z,945.86
2018-04-30T05:00:35.090Z,945.92
2018-04-30T05:01:35.095Z,946.01
2018-04-30T05:02:35.098Z,945.95
2018-04-30T05:03:35.092Z,946.04
2018-04-30T05:04:35.102Z,946.10
2018-04-30T05:05:35.099Z,946.12
2018-04-30T05:06:35.106Z,946.11
2018-04-30T05:07:35.688Z,946.19
2018-04-30T05:08:35.109Z,946.21
2018-04-30T05:09:35.108Z,946.21
2018-04-30T05:10:35.109Z,946.29
2018-04-30T05:11:35.109Z,946.36
2018-04-30T05:12:35.113Z,946.46
2018-04-30T05:13:35.119Z,946.43
2018-04-30T05:14:35.116Z,946.54
2018-04-30T05:15:35.117Z,946.60
2018-04-30T05:16:35.121Z,946.76
2018-04-30T05:17:35.122Z,946.84
2018-04-30T05:18:35.125Z,946.83
2018-04-30T05:19:35.125Z,946.90
2018-04-30T05:20:35.127Z,946.90
2018-04-30T05:21:35.130Z,946.97
2018-04-30T05:22:35.694Z,947.03
2018-04-30T05:23:35.137Z,947.07
2018-04-30T05:24:35.135Z,947.05
2018-04-30T05:25:35.141Z,947.09
2018-04-30T05:26:35.139Z,947.09
2018-04-30T05:27:35.142Z,947.10
2018-04-30T05:28:35.143Z,947.11
2018-04-30T05:29:35.147Z,947.10
2018-04-30T05:30:35.147Z,947.15
2018-04-30T05:31:35.152Z,947.19
2018-04-30T05:32:35.154Z,947.04
2018-04-30T05:33:35.151Z,947.09
2018-04-30T05:34:35.156Z,947.08
2018-04-30T05:35:35.160Z,947.12
2018-04-30T05:36:35.161Z,947.09
2018-04-30T05:37:35.161Z,947.03
2018-04-30T05:38:35.168Z,947.11
2018-04-30T05:39:35.162Z,947.16
2018-04-30T05:40:35.167Z,947.11
2018-04-30T05:41:35.169Z,947.10
2018-04-30T05:42:35.171Z,947.17
2018-04-30T05:43:35.171Z,947.21
2018-04-30T05:44:35.174Z,947.11
2018-04-30T05:45:35.177Z,947.11
2018-04-30T05:46:35.179Z,947.22
2018-04-30T05:47:35.179Z,947.17
2018-04-30T05:48:35.182Z,947.13
2018-04-30T05:49:35.184Z,947.09
2018-04-30T05:50:35.185Z,947.06
2018-04-30T05:51:35.187Z,947.12
2018-04-30T05:52:35.191Z,947.07
2018-04-30T05:53:35.193Z,947.05
2018-04-30T05:54:35.193Z,947.15
2018-04-30T05:55:35.195Z,947.13
2018-04-30T05:56:35.196Z,947.24
2018-04-30T05:57:35.203Z,947.25
2018-04-30T05:58:35.202Z,947.18
2018-04-30T05:59:35.206Z,947.18
2018-04-30T06:00:35.220Z,947.27
2018-04-30T06:01:35.212Z,947.28
2018-04-30T06:02:35.209Z,947.28
2018-04-30T06:03:35.214Z,947.34
2018-04-30T06:04:35.212Z,947.31
2018-04-30T06:05:35.214Z,947.29
2018-04-30T06:06:35.217Z,947.39
2018-04-30T06:07:35.219Z,947.41
2018-04-30T06:08:35.231Z,947.42
2018-04-30T06:09:35.221Z,947.51
2018-04-30T06:10:35.231Z,947.50
2018-04-30T06:11:35.229Z,947.63
2018-04-30T06:12:35.227Z,947.52
2018-04-30T06:13:35.228Z,947.45
2018-04-30T06:14:35.310Z,947.57
2018-04-30T06:15:35.234Z,947.54
2018-04-30T06:16:35.234Z,947.58
2018-04-30T06:17:35.238Z,947.74
2018-04-30T06:18:35.238Z,947.58
2018-04-30T06:19:36.201Z,947.63
2018-04-30T06:20:35.241Z,947.59
2018-04-30T06:21:36.200Z,947.63
2018-04-30T06:22:35.246Z,947.62
2018-04-30T06:23:35.244Z,947.71
2018-04-30T06:24:35.245Z,947.59
2018-04-30T06:25:35.254Z,947.76
2018-04-30T06:26:35.292Z,947.67
2018-04-30T06:27:35.255Z,947.70
2018-04-30T06:28:35.253Z,947.66
2018-04-30T06:29:35.255Z,947.71
2018-04-30T06:30:35.253Z,947.74
2018-04-30T06:31:35.256Z,947.67
2018-04-30T06:32:35.256Z,947.77
2018-04-30T06:33:35.267Z,947.85
2018-04-30T06:34:35.260Z,947.83
2018-04-30T06:35:35.263Z,947.77
2018-04-30T06:36:35.262Z,947.78
2018-04-30T06:37:35.265Z,947.87
2018-04-30T06:38:35.264Z,947.81
2018-04-30T06:39:35.273Z,947.84
2018-04-30T06:40:35.287Z,947.86
2018-04-30T06:41:35.270Z,947.92
2018-04-30T06:42:35.281Z,947.97
2018-04-30T06:43:35.300Z,947.97
2018-04-30T06:44:35.290Z,947.97
2018-04-30T06:45:35.273Z,947.93
2018-04-30T06:46:35.274Z,947.98
2018-04-30T06:47:35.335Z,947.96
2018-04-30T06:48:35.303Z,948.02
2018-04-30T06:49:35.279Z,947.98
2018-04-30T06:50:35.279Z,948.03
2018-04-30T06:51:35.281Z,948.09
2018-04-30T06:52:36.206Z,948.04
2018-04-30T06:53:35.383Z,948.15
2018-04-30T06:54:35.283Z,948.10
2018-04-30T06:55:35.286Z,948.14
2018-04-30T06:56:35.288Z,948.11
2018-04-30T06:57:35.289Z,948.18
2018-04-30T06:58:35.288Z,948.18
2018-04-30T06:59:35.290Z,948.26
2018-04-30T07:00:35.291Z,948.32
2018-04-30T07:01:35.293Z,948.39
2018-04-30T07:02:35.327Z,948.37
2018-04-30T07:03:35.299Z,948.25
2018-04-30T07:04:35.297Z,948.40
2018-04-30T07:05:35.298Z,948.36
2018-04-30T07:06:35.301Z,948.50
2018-04-30T07:07:35.304Z,948.47
2018-04-30T07:08:35.302Z,948.35
2018-04-30T07:09:35.495Z,948.38
2018-04-30T07:10:35.307Z,948.33
2018-04-30T07:11:35.308Z,948.27
2018-04-30T07:12:35.309Z,948.42
2018-04-30T07:13:35.312Z,948.29
2018-04-30T07:14:35.320Z,948.40
2018-04-30T07:15:35.329Z,948.38
2018-04-30T07:16:35.335Z,948.29
2018-04-30T07:17:35.322Z,948.29
2018-04-30T07:18:35.331Z,948.46
2018-04-30T07:19:36.210Z,948.69
2018-04-30T07:20:35.327Z,948.47
2018-04-30T07:21:35.332Z,948.72
2018-04-30T07:22:35.335Z,948.69
2018-04-30T07:23:35.335Z,948.47
2018-04-30T07:24:35.337Z,948.55
2018-04-30T07:25:35.340Z,948.57
2018-04-30T07:26:35.339Z,948.55
2018-04-30T07:27:35.418Z,948.66
2018-04-30T07:28:35.352Z,948.78
2018-04-30T07:29:35.356Z,948.73
2018-04-30T07:30:35.350Z,948.72
2018-04-30T07:31:35.351Z,948.40
2018-04-30T07:32:35.353Z,948.48
2018-04-30T07:33:35.355Z,948.55
2018-04-30T07:34:35.356Z,948.66
2018-04-30T07:35:35.357Z,948.50
2018-04-30T07:36:35.361Z,948.60
2018-04-30T07:37:35.367Z,948.70
2018-04-30T07:38:35.366Z,948.56
2018-04-30T07:39:35.369Z,948.65
2018-04-30T07:40:35.374Z,948.75
2018-04-30T07:41:35.398Z,948.70
2018-04-30T07:42:35.382Z,948.63
2018-04-30T07:43:35.420Z,948.57
2018-04-30T07:44:35.393Z,948.64
2018-04-30T07:45:35.545Z,948.58
2018-04-30T07:46:35.386Z,948.61
2018-04-30T07:47:35.391Z,948.55
2018-04-30T07:48:35.393Z,948.51
2018-04-30T07:49:35.399Z,948.43
2018-04-30T07:50:35.400Z,948.50
2018-04-30T07:51:35.416Z,948.45
2018-04-30T07:52:35.405Z,948.47
2018-04-30T07:53:35.409Z,948.61
2018-04-30T07:54:35.441Z,948.68
2018-04-30T07:55:35.499Z,948.56
2018-04-30T07:56:35.416Z,948.56
2018-04-30T07:57:35.420Z,948.65
2018-04-30T07:58:35.421Z,948.79
2018-04-30T07:59:35.424Z,948.89
2018-04-30T08:00:35.427Z,949.09
2018-04-30T08:01:35.432Z,948.53
2018-04-30T08:02:35.433Z,948.78
2018-04-30T08:03:35.435Z,948.69
2018-04-30T08:04:35.437Z,948.94
2018-04-30T08:05:35.457Z,948.92
2018-04-30T08:06:36.259Z,949.03
2018-04-30T08:07:35.458Z,948.99
2018-04-30T08:08:35.453Z,949.04
2018-04-30T08:09:35.469Z,949.14
2018-04-30T08:10:35.454Z,949.09
2018-04-30T08:11:35.457Z,949.15
2018-04-30T08:12:35.459Z,949.27
2018-04-30T08:13:35.461Z,949.36
2018-04-30T08:14:35.464Z,949.36
2018-04-30T08:15:35.485Z,949.31
2018-04-30T08:16:35.469Z,949.32
2018-04-30T08:17:35.633Z,949.56
2018-04-30T08:18:35.471Z,949.43
2018-04-30T08:19:36.507Z,949.63
2018-04-30T08:20:35.650Z,949.62
2018-04-30T08:21:36.129Z,949.57
2018-04-30T08:22:35.651Z,949.50
2018-04-30T08:23:35.697Z,949.49
2018-04-30T08:24:35.484Z,949.64
2018-04-30T08:25:35.492Z,949.61
2018-04-30T08:26:35.488Z,949.73
2018-04-30T08:27:35.503Z,949.77
2018-04-30T08:28:35.501Z,949.62
2018-04-30T08:29:35.495Z,949.53
2018-04-30T08:30:35.496Z,949.54
2018-04-30T08:31:35.524Z,949.61
2018-04-30T08:32:35.505Z,949.62
2018-04-30T08:33:35.504Z,949.51
2018-04-30T08:34:35.504Z,949.60
2018-04-30T08:35:35.507Z,949.54
2018-04-30T08:36:35.585Z,949.37
2018-04-30T08:37:35.509Z,949.52
2018-04-30T08:38:35.520Z,949.43
2018-04-30T08:39:35.514Z,949.32
2018-04-30T08:40:35.521Z,949.16
2018-04-30T08:41:35.518Z,949.27
2018-04-30T08:42:35.518Z,949.22
2018-04-30T08:43:35.526Z,949.29
2018-04-30T08:44:35.520Z,949.29
2018-04-30T08:45:35.525Z,949.40
2018-04-30T08:46:35.525Z,949.32
2018-04-30T08:47:35.524Z,949.40
2018-04-30T08:48:35.539Z,949.56
2018-04-30T08:49:35.557Z,949.28
2018-04-30T08:50:35.533Z,949.47
2018-04-30T08:51:35.545Z,949.49
2018-04-30T08:52:35.535Z,949.44
2018-04-30T08:53:35.536Z,949.47
2018-04-30T08:54:36.401Z,949.28
2018-04-30T08:55:35.541Z,949.38
2018-04-30T08:56:35.540Z,949.24
2018-04-30T08:57:35.537Z,949.27
2018-04-30T08:58:35.539Z,949.15
2018-04-30T08:59:35.735Z,949.22
2018-04-30T09:00:35.587Z,949.11
2018-04-30T09:01:35.561Z,949.08
2018-04-30T09:02:35.546Z,949.10
2018-04-30T09:03:35.582Z,949.26
2018-04-30T09:04:35.548Z,949.25
2018-04-30T09:05:35.564Z,949.22
2018-04-30T09:06:35.548Z,949.14
2018-04-30T09:07:35.551Z,949.13
2018-04-30T09:08:35.557Z,949.07
2018-04-30T09:09:35.590Z,949.17
2018-04-30T09:10:35.554Z,949.31
2018-04-30T09:11:35.556Z,949.41
2018-04-30T09:12:35.555Z,949.71
2018-04-30T09:13:35.562Z,949.67
2018-04-30T09:14:35.560Z,949.75
2018-04-30T09:15:35.563Z,949.78
2018-04-30T09:16:35.565Z,949.72
2018-04-30T09:17:35.563Z,949.51
2018-04-30T09:18:35.565Z,949.58
2018-04-30T09:19:35.570Z,949.87
2018-04-30T09:20:35.576Z,949.95
2018-04-30T09:21:35.577Z,949.86
2018-04-30T09:22:35.575Z,949.79
2018-04-30T09:23:35.578Z,949.78
2018-04-30T09:24:35.598Z,949.79
2018-04-30T09:25:35.581Z,949.92
2018-04-30T09:26:35.583Z,949.91
2018-04-30T09:27:35.587Z,950.02
2018-04-30T09:28:35.589Z,950.02
2018-04-30T09:29:35.705Z,950.15
2018-04-30T09:30:35.592Z,950.02
2018-04-30T09:31:35.594Z,950.23
2018-04-30T09:32:35.595Z,950.08
2018-04-30T09:33:35.598Z,950.09
2018-04-30T09:34:35.599Z,950.01
2018-04-30T09:35:35.836Z,949.99
2018-04-30T09:36:35.604Z,950.03
2018-04-30T09:37:35.606Z,949.91
2018-04-30T09:38:35.606Z,949.77
2018-04-30T09:39:35.611Z,949.79
2018-04-30T09:40:35.609Z,949.76
2018-04-30T09:41:35.615Z,949.83
2018-04-30T09:42:35.612Z,949.82
2018-04-30T09:43:35.616Z,949.91
2018-04-30T09:44:36.401Z,949.93
2018-04-30T09:45:35.620Z,949.91
2018-04-30T09:46:35.622Z,950.03
2018-04-30T09:47:36.634Z,949.97
2018-04-30T09:48:35.623Z,950.19
2018-04-30T09:49:36.240Z,950.05
2018-04-30T09:50:35.625Z,950.15
2018-04-30T09:51:35.627Z,950.11
2018-04-30T09:52:35.705Z,950.31
2018-04-30T09:53:35.636Z,950.20
2018-04-30T09:54:35.695Z,950.22
2018-04-30T09:55:37.328Z,950.13
2018-04-30T09:56:35.643Z,950.02
2018-04-30T09:57:35.693Z,949.99
2018-04-30T09:58:35.638Z,949.99
2018-04-30T09:59:35.688Z,949.91
2018-04-30T10:00:36.439Z,949.87
2018-04-30T10:01:35.642Z,949.80
2018-04-30T10:02:35.646Z,949.97
2018-04-30T10:03:37.240Z,949.99
2018-04-30T10:04:35.647Z,950.05
2018-04-30T10:05:35.653Z,950.20
2018-04-30T10:06:35.649Z,950.29
2018-04-30T10:07:36.338Z,950.18
2018-04-30T10:08:35.653Z,950.24
2018-04-30T10:09:35.655Z,950.29
2018-04-30T10:10:35.655Z,950.32
2018-04-30T10:11:35.656Z,950.28
2018-04-30T10:12:35.659Z,950.28
2018-04-30T10:13:35.660Z,950.40
2018-04-30T10:14:35.668Z,950.36
2018-04-30T10:15:35.663Z,950.47
2018-04-30T10:16:35.666Z,950.43
2018-04-30T10:17:35.668Z,950.43
2018-04-30T10:18:35.669Z,950.49
2018-04-30T10:19:35.677Z,950.42
2018-04-30T10:20:35.673Z,950.42
2018-04-30T10:21:35.679Z,950.58
2018-04-30T10:22:35.685Z,950.32
2018-04-30T10:23:35.726Z,950.51
2018-04-30T10:24:35.682Z,950.57
2018-04-30T10:25:35.687Z,950.58
2018-04-30T10:26:35.687Z,950.50
2018-04-30T10:27:35.687Z,950.67
2018-04-30T10:28:35.740Z,950.45
2018-04-30T10:29:35.694Z,950.51
2018-04-30T10:30:35.694Z,950.68
2018-04-30T10:31:35.708Z,950.63
2018-04-30T10:32:35.699Z,950.74
2018-04-30T10:33:35.701Z,950.65
2018-04-30T10:34:35.702Z,950.78
2018-04-30T10:35:35.704Z,950.70
2018-04-30T10:36:35.708Z,950.52
2018-04-30T10:37:35.713Z,950.79
2018-04-30T10:38:35.712Z,950.64
2018-04-30T10:39:35.717Z,950.65
2018-04-30T10:40:35.720Z,950.77
2018-04-30T10:41:35.727Z,950.78
2018-04-30T10:42:35.725Z,950.76
2018-04-30T10:43:35.731Z,950.83
2018-04-30T10:44:35.733Z,950.88
2018-04-30T10:45:35.738Z,950.80
2018-04-30T10:46:35.739Z,951.00
2018-04-30T10:47:35.743Z,950.83
2018-04-30T10:48:35.745Z,950.82
2018-04-30T10:49:35.750Z,950.82
2018-04-30T10:50:35.751Z,950.86
2018-04-30T10:51:35.789Z,950.91
2018-04-30T10:52:35.756Z,950.84
2018-04-30T10:53:35.760Z,950.90
2018-04-30T10:54:35.766Z,950.80
2018-04-30T10:55:35.767Z,950.87
2018-04-30T10:56:35.770Z,950.81
2018-04-30T10:57:35.801Z,950.95
2018-04-30T10:58:35.789Z,950.88
2018-04-30T10:59:35.781Z,950.90
2018-04-30T11:00:35.780Z,950.83
2018-04-30T11:01:35.782Z,950.90
2018-04-30T11:02:35.858Z,950.92
2018-04-30T11:03:35.792Z,950.86
2018-04-30T11:04:35.794Z,951.01
2018-04-30T11:05:35.813Z,950.97
2018-04-30T11:06:35.792Z,951.06
2018-04-30T11:07:35.798Z,950.96
2018-04-30T11:08:35.800Z,951.04
2018-04-30T11:09:35.803Z,950.80
2018-04-30T11:10:36.754Z,950.99
2018-04-30T11:11:35.811Z,950.78
2018-04-30T11:12:35.811Z,951.01
2018-04-30T11:13:35.816Z,950.71
2018-04-30T11:14:35.820Z,950.84
2018-04-30T11:15:35.817Z,950.98
2018-04-30T11:16:35.822Z,950.75
2018-04-30T11:17:35.827Z,950.84
2018-04-30T11:18:40.253Z,950.91
2018-04-30T11:19:35.830Z,950.86
2018-04-30T11:20:36.754Z,950.95
2018-04-30T11:21:35.837Z,950.92
2018-04-30T11:22:35.839Z,950.96
2018-04-30T11:23:35.842Z,950.97
2018-04-30T11:24:35.849Z,951.03
2018-04-30T11:25:35.851Z,950.89
2018-04-30T11:26:35.853Z,951.05
2018-04-30T11:27:35.946Z,951.03
2018-04-30T11:28:35.865Z,950.99
2018-04-30T11:29:35.864Z,950.84
2018-04-30T11:30:35.877Z,950.96
2018-04-30T11:31:35.903Z,950.89
2018-04-30T11:32:35.877Z,950.83
2018-04-30T11:33:35.887Z,950.87
2018-04-30T11:34:35.883Z,950.89
2018-04-30T11:35:35.891Z,950.94
2018-04-30T11:36:35.905Z,950.99
2018-04-30T11:37:36.759Z,951.03
2018-04-30T11:38:35.905Z,951.00
2018-04-30T11:39:35.939Z,951.02
2018-04-30T11:40:35.932Z,951.03
2018-04-30T11:41:35.909Z,951.07
2018-04-30T11:42:35.913Z,951.10
2018-04-30T11:43:35.925Z,951.11
2018-04-30T11:44:36.015Z,951.09
2018-04-30T11:45:35.931Z,951.14
2018-04-30T11:46:36.410Z,951.03
2018-04-30T11:47:36.681Z,951.10
2018-04-30T11:48:35.932Z,951.14
2018-04-30T11:49:36.445Z,951.11
2018-04-30T11:50:36.441Z,951.13
2018-04-30T11:51:35.956Z,951.17
2018-04-30T11:52:35.948Z,951.21
2018-04-30T11:53:35.971Z,951.20
2018-04-30T11:54:35.966Z,951.16
2018-04-30T11:55:36.762Z,951.19
2018-04-30T11:56:35.959Z,951.20
2018-04-30T11:57:36.173Z,951.20
2018-04-30T11:58:36.142Z,951.20
2018-04-30T11:59:36.360Z,951.16
2018-04-30T12:00:36.317Z,951.18
2018-04-30T12:01:36.315Z,951.24
2018-04-30T12:02:36.340Z,951.26
2018-04-30T12:03:36.345Z,951.22
2018-04-30T12:04:35.986Z,951.33
2018-04-30T12:05:36.359Z,951.31
2018-04-30T12:06:36.425Z,951.28
2018-04-30T12:07:36.363Z,951.25
2018-04-30T12:08:35.999Z,951.26
2018-04-30T12:09:36.010Z,951.30
2018-04-30T12:10:36.383Z,951.33
2018-04-30T12:11:36.821Z,951.28
2018-04-30T12:12:36.401Z,951.29
2018-04-30T12:13:36.344Z,951.32
2018-04-30T12:14:37.766Z,951.40
2018-04-30T12:15:36.435Z,951.26
2018-04-30T12:16:36.913Z,951.26
2018-04-30T12:17:36.381Z,951.25
2018-04-30T12:18:36.333Z,951.35
2018-04-30T12:19:36.432Z,951.27
2018-04-30T12:20:36.442Z,951.28
2018-04-30T12:21:36.299Z,951.44
2018-04-30T12:22:36.833Z,951.28
2018-04-30T12:23:36.368Z,951.20
2018-04-30T12:24:36.365Z,951.23
2018-04-30T12:25:36.386Z,951.21
2018-04-30T12:26:36.349Z,951.26
2018-04-30T12:27:36.234Z,951.19
2018-04-30T12:28:36.842Z,951.21